sensor_id;sensor_type;location;lat;lon;timestamp;pressure;altitude;pressure_sealevel;temperature;humidity
74973;BME280;63529;56.320;43.990;2022-11-20T00:00:53;100289.31;;;-5.50;66.36
74973;BME280;63529;56.320;43.990;2022-11-20T00:03:20;100297.13;;;-5.50;66.46
74973;BME280;63529;56.320;43.990;2022-11-20T00:05:46;100294.53;;;-5.50;66.27
74973;BME280;63529;56.320;43.990;2022-11-20T00:08:12;100290.13;;;-5.50;66.27
74973;BME280;63529;56.320;43.990;2022-11-20T00:10:41;100291.25;;;-5.52;65.88
74973;BME280;63529;56.320;43.990;2022-11-20T00:13:07;100288.50;;;-5.51;66.31
74973;BME280;63529;56.320;43.990;2022-11-20T00:15:33;100296.31;;;-5.51;66.34
74973;BME280;63529;56.320;43.990;2022-11-20T00:17:59;100287.69;;;-5.51;66.30
74973;BME280;63529;56.320;43.990;2022-11-20T00:20:25;100298.25;;;-5.53;65.59
74973;BME280;63529;56.320;43.990;2022-11-20T00:22:51;100305.25;;;-5.53;65.31
74973;BME280;63529;56.320;43.990;2022-11-20T00:25:17;100283.75;;;-5.55;65.67
74973;BME280;63529;56.320;43.990;2022-11-20T00:27:43;100285.41;;;-5.54;66.11
74973;BME280;63529;56.320;43.990;2022-11-20T00:30:09;100278.69;;;-5.57;66.23
74973;BME280;63529;56.320;43.990;2022-11-20T00:32:35;100269.09;;;-5.56;66.14
74973;BME280;63529;56.320;43.990;2022-11-20T00:35:01;100290.44;;;-5.53;66.15
74973;BME280;63529;56.320;43.990;2022-11-20T00:37:29;100287.03;;;-5.53;65.86
74973;BME280;63529;56.320;43.990;2022-11-20T00:39:54;100290.59;;;-5.54;66.05
74973;BME280;63529;56.320;43.990;2022-11-20T00:42:20;100299.34;;;-5.55;66.15
74973;BME280;63529;56.320;43.990;2022-11-20T00:44:46;100290.88;;;-5.57;66.20
74973;BME280;63529;56.320;43.990;2022-11-20T00:47:12;100288.94;;;-5.55;66.24
74973;BME280;63529;56.320;43.990;2022-11-20T00:49:38;100283.75;;;-5.55;66.07
74973;BME280;63529;56.320;43.990;2022-11-20T00:52:04;100279.34;;;-5.55;65.84
74973;BME280;63529;56.320;43.990;2022-11-20T00:54:30;100286.34;;;-5.55;65.65
74973;BME280;63529;56.320;43.990;2022-11-20T00:56:56;100273.50;;;-5.57;65.70
74973;BME280;63529;56.320;43.990;2022-11-20T00:59:22;100281.13;;;-5.55;66.35
74973;BME280;63529;56.320;43.990;2022-11-20T01:01:48;100291.41;;;-5.54;65.88
74973;BME280;63529;56.320;43.990;2022-11-20T01:04:14;100289.91;;;-5.56;65.54
74973;BME280;63529;56.320;43.990;2022-11-20T01:06:40;100291.84;;;-5.58;65.55
74973;BME280;63529;56.320;43.990;2022-11-20T01:09:09;100286.09;;;-5.62;65.13
74973;BME280;63529;56.320;43.990;2022-11-20T01:11:38;100275.88;;;-5.63;65.68
74973;BME280;63529;56.320;43.990;2022-11-20T01:14:06;100275.88;;;-5.63;65.67
74973;BME280;63529;56.320;43.990;2022-11-20T01:16:35;100269.03;;;-5.64;66.42
74973;BME280;63529;56.320;43.990;2022-11-20T01:19:03;100269.31;;;-5.67;66.29
74973;BME280;63529;56.320;43.990;2022-11-20T01:21:33;100257.97;;;-5.66;66.79
74973;BME280;63529;56.320;43.990;2022-11-20T01:23:59;100269.19;;;-5.66;66.88
74973;BME280;63529;56.320;43.990;2022-11-20T01:26:28;100280.69;;;-5.68;66.80
74973;BME280;63529;56.320;43.990;2022-11-20T01:28:56;100260.03;;;-5.70;66.52
74973;BME280;63529;56.320;43.990;2022-11-20T01:31:33;100267.00;;;-5.70;66.42
74973;BME280;63529;56.320;43.990;2022-11-20T01:34:02;100270.59;;;-5.71;66.54
74973;BME280;63529;56.320;43.990;2022-11-20T01:36:30;100265.00;;;-5.77;66.20
74973;BME280;63529;56.320;43.990;2022-11-20T01:38:59;100266.25;;;-5.81;66.09
74973;BME280;63529;56.320;43.990;2022-11-20T01:41:27;100280.19;;;-5.82;65.99
74973;BME280;63529;56.320;43.990;2022-11-20T01:44:14;100263.41;;;-5.87;66.09
74973;BME280;63529;56.320;43.990;2022-11-20T01:47:02;100279.84;;;-5.87;66.20
74973;BME280;63529;56.320;43.990;2022-11-20T01:49:37;100287.75;;;-5.88;65.94
74973;BME280;63529;56.320;43.990;2022-11-20T01:52:08;100285.84;;;-5.86;66.37
74973;BME280;63529;56.320;43.990;2022-11-20T01:54:47;100283.38;;;-5.88;66.56
74973;BME280;63529;56.320;43.990;2022-11-20T01:57:15;100273.81;;;-5.87;66.42
74973;BME280;63529;56.320;43.990;2022-11-20T01:59:49;100269.44;;;-5.87;66.39
74973;BME280;63529;56.320;43.990;2022-11-20T02:02:20;100267.66;;;-5.86;66.31
74973;BME280;63529;56.320;43.990;2022-11-20T02:04:47;100269.31;;;-5.85;66.26
74973;BME280;63529;56.320;43.990;2022-11-20T02:07:15;100271.75;;;-5.84;66.41
74973;BME280;63529;56.320;43.990;2022-11-20T02:09:43;100280.19;;;-5.82;66.72
74973;BME280;63529;56.320;43.990;2022-11-20T02:12:09;100275.00;;;-5.82;66.75
74973;BME280;63529;56.320;43.990;2022-11-20T02:14:56;100273.09;;;-5.80;66.84
74973;BME280;63529;56.320;43.990;2022-11-20T02:17:23;100271.44;;;-5.81;66.94
74973;BME280;63529;56.320;43.990;2022-11-20T02:19:50;100260.09;;;-5.80;66.75
74973;BME280;63529;56.320;43.990;2022-11-20T02:22:42;100259.41;;;-5.82;66.69
74973;BME280;63529;56.320;43.990;2022-11-20T02:25:11;100261.03;;;-5.81;66.50
74973;BME280;63529;56.320;43.990;2022-11-20T02:27:38;100249.16;;;-5.83;66.43
74973;BME280;63529;56.320;43.990;2022-11-20T02:30:05;100257.94;;;-5.84;66.43
74973;BME280;63529;56.320;43.990;2022-11-20T02:32:37;100258.34;;;-5.89;65.99
74973;BME280;63529;56.320;43.990;2022-11-20T02:35:09;100247.47;;;-5.92;65.82
74973;BME280;63529;56.320;43.990;2022-11-20T02:37:38;100245.59;;;-6.00;65.31
74973;BME280;63529;56.320;43.990;2022-11-20T02:40:06;100247.00;;;-6.06;65.38
74973;BME280;63529;56.320;43.990;2022-11-20T02:42:32;100244.97;;;-6.12;65.66
74973;BME280;63529;56.320;43.990;2022-11-20T02:44:58;100242.00;;;-6.17;65.93
74973;BME280;63529;56.320;43.990;2022-11-20T02:47:24;100252.53;;;-6.18;65.63
74973;BME280;63529;56.320;43.990;2022-11-20T02:49:49;100270.16;;;-6.22;65.46
74973;BME280;63529;56.320;43.990;2022-11-20T02:52:15;100258.56;;;-6.28;66.17
74973;BME280;63529;56.320;43.990;2022-11-20T02:54:41;100267.19;;;-6.27;66.33
74973;BME280;63529;56.320;43.990;2022-11-20T02:57:07;100272.53;;;-6.29;66.45
74973;BME280;63529;56.320;43.990;2022-11-20T02:59:33;100268.28;;;-6.30;66.56
74973;BME280;63529;56.320;43.990;2022-11-20T03:01:59;100263.38;;;-6.33;66.26
74973;BME280;63529;56.320;43.990;2022-11-20T03:04:25;100255.06;;;-6.36;65.96
74973;BME280;63529;56.320;43.990;2022-11-20T03:06:51;100266.25;;;-6.36;66.46
74973;BME280;63529;56.320;43.990;2022-11-20T03:09:16;100262.19;;;-6.38;66.41
74973;BME280;63529;56.320;43.990;2022-11-20T03:11:42;100265.03;;;-6.41;65.67
74973;BME280;63529;56.320;43.990;2022-11-20T03:14:08;100252.06;;;-6.41;65.94
74973;BME280;63529;56.320;43.990;2022-11-20T03:16:34;100256.44;;;-6.42;66.64
74973;BME280;63529;56.320;43.990;2022-11-20T03:19:00;100247.84;;;-6.42;66.15
74973;BME280;63529;56.320;43.990;2022-11-20T03:21:26;100248.81;;;-6.43;66.10
74973;BME280;63529;56.320;43.990;2022-11-20T03:23:53;100253.19;;;-6.44;65.85
74973;BME280;63529;56.320;43.990;2022-11-20T03:26:24;100251.00;;;-6.48;65.95
74973;BME280;63529;56.320;43.990;2022-11-20T03:28:52;100245.66;;;-6.47;66.08
74973;BME280;63529;56.320;43.990;2022-11-20T03:31:21;100250.84;;;-6.47;66.02
74973;BME280;63529;56.320;43.990;2022-11-20T03:33:48;100259.75;;;-6.49;66.10
74973;BME280;63529;56.320;43.990;2022-11-20T03:36:15;100248.53;;;-6.50;65.98
74973;BME280;63529;56.320;43.990;2022-11-20T03:38:41;100244.44;;;-6.52;65.92
74973;BME280;63529;56.320;43.990;2022-11-20T03:41:09;100243.91;;;-6.56;65.31
74973;BME280;63529;56.320;43.990;2022-11-20T03:43:36;100231.91;;;-6.57;65.79
74973;BME280;63529;56.320;43.990;2022-11-20T03:46:02;100233.81;;;-6.59;65.71
74973;BME280;63529;56.320;43.990;2022-11-20T03:48:28;100231.91;;;-6.57;66.56
74973;BME280;63529;56.320;43.990;2022-11-20T03:51:18;100230.94;;;-6.56;66.28
74973;BME280;63529;56.320;43.990;2022-11-20T03:53:45;100221.53;;;-6.57;66.13
74973;BME280;63529;56.320;43.990;2022-11-20T03:56:13;100224.13;;;-6.57;66.15
74973;BME280;63529;56.320;43.990;2022-11-20T03:58:40;100219.88;;;-6.58;66.14
74973;BME280;63529;56.320;43.990;2022-11-20T04:01:15;100224.22;;;-6.59;66.25
74973;BME280;63529;56.320;43.990;2022-11-20T04:03:43;100227.38;;;-6.55;66.03
74973;BME280;63529;56.320;43.990;2022-11-20T04:06:12;100234.19;;;-6.54;66.16
74973;BME280;63529;56.320;43.990;2022-11-20T04:08:39;100240.34;;;-6.55;66.09
74973;BME280;63529;56.320;43.990;2022-11-20T04:11:10;100248.81;;;-6.53;66.26
74973;BME280;63529;56.320;43.990;2022-11-20T04:13:36;100252.38;;;-6.54;65.89
74973;BME280;63529;56.320;43.990;2022-11-20T04:16:02;100246.22;;;-6.53;66.02
74973;BME280;63529;56.320;43.990;2022-11-20T04:18:28;100255.66;;;-6.52;66.20
74973;BME280;63529;56.320;43.990;2022-11-20T04:20:56;100255.38;;;-6.49;66.62
74973;BME280;63529;56.320;43.990;2022-11-20T04:23:23;100260.56;;;-6.49;66.49
74973;BME280;63529;56.320;43.990;2022-11-20T04:25:49;100250.19;;;-6.49;66.56
74973;BME280;63529;56.320;43.990;2022-11-20T04:28:15;100255.22;;;-6.47;66.54
74973;BME280;63529;56.320;43.990;2022-11-20T04:30:41;100242.25;;;-6.47;66.40
74973;BME280;63529;56.320;43.990;2022-11-20T04:33:07;100233.50;;;-6.46;66.36
74973;BME280;63529;56.320;43.990;2022-11-20T04:35:36;100238.56;;;-6.45;66.69
74973;BME280;63529;56.320;43.990;2022-11-20T04:38:03;100238.56;;;-6.45;66.44
74973;BME280;63529;56.320;43.990;2022-11-20T04:40:30;100238.41;;;-6.43;66.30
74973;BME280;63529;56.320;43.990;2022-11-20T04:42:57;100240.84;;;-6.42;66.46
74973;BME280;63529;56.320;43.990;2022-11-20T04:45:23;100232.91;;;-6.40;66.54
74973;BME280;63529;56.320;43.990;2022-11-20T04:47:49;100234.84;;;-6.42;66.06
74973;BME280;63529;56.320;43.990;2022-11-20T04:50:15;100241.16;;;-6.45;65.63
74973;BME280;63529;56.320;43.990;2022-11-20T04:52:41;100245.53;;;-6.45;65.75
74973;BME280;63529;56.320;43.990;2022-11-20T04:55:07;100234.59;;;-6.49;65.57
74973;BME280;63529;56.320;43.990;2022-11-20T04:57:33;100240.75;;;-6.50;65.86
74973;BME280;63529;56.320;43.990;2022-11-20T04:59:59;100233.78;;;-6.49;65.97
74973;BME280;63529;56.320;43.990;2022-11-20T05:02:25;100234.59;;;-6.49;66.18
74973;BME280;63529;56.320;43.990;2022-11-20T05:04:50;100239.94;;;-6.50;65.90
74973;BME280;63529;56.320;43.990;2022-11-20T05:07:16;100243.22;;;-6.48;65.92
74973;BME280;63529;56.320;43.990;2022-11-20T05:09:42;100244.16;;;-6.49;65.24
74973;BME280;63529;56.320;43.990;2022-11-20T05:12:08;100246.78;;;-6.49;65.52
74973;BME280;63529;56.320;43.990;2022-11-20T05:14:34;100232.81;;;-6.48;65.46
74973;BME280;63529;56.320;43.990;2022-11-20T05:17:00;100235.56;;;-6.50;65.06
74973;BME280;63529;56.320;43.990;2022-11-20T05:19:26;100235.84;;;-6.53;64.85
74973;BME280;63529;56.320;43.990;2022-11-20T05:21:52;100233.25;;;-6.53;65.05
74973;BME280;63529;56.320;43.990;2022-11-20T05:24:18;100246.63;;;-6.48;65.17
74973;BME280;63529;56.320;43.990;2022-11-20T05:26:44;100232.97;;;-6.50;65.24
74973;BME280;63529;56.320;43.990;2022-11-20T05:29:11;100250.03;;;-6.47;65.21
74973;BME280;63529;56.320;43.990;2022-11-20T05:31:38;100246.63;;;-6.48;64.95
74973;BME280;63529;56.320;43.990;2022-11-20T05:34:05;100244.84;;;-6.47;64.66
74973;BME280;63529;56.320;43.990;2022-11-20T05:36:31;100234.31;;;-6.46;65.59
74973;BME280;63529;56.320;43.990;2022-11-20T05:38:57;100230.47;;;-6.42;65.22
74973;BME280;63529;56.320;43.990;2022-11-20T05:41:23;100238.25;;;-6.42;64.71
74973;BME280;63529;56.320;43.990;2022-11-20T05:43:50;100235.66;;;-6.42;64.88
74973;BME280;63529;56.320;43.990;2022-11-20T05:46:18;100238.94;;;-6.40;65.29
74973;BME280;63529;56.320;43.990;2022-11-20T05:48:45;100224.03;;;-6.38;65.34
74973;BME280;63529;56.320;43.990;2022-11-20T05:51:15;100222.78;;;-6.34;65.51
74973;BME280;63529;56.320;43.990;2022-11-20T05:53:41;100230.97;;;-6.29;65.51
74973;BME280;63529;56.320;43.990;2022-11-20T05:56:11;100232.31;;;-6.24;65.11
74973;BME280;63529;56.320;43.990;2022-11-20T05:58:37;100231.88;;;-6.20;65.33
74973;BME280;63529;56.320;43.990;2022-11-20T06:03:34;100236.66;;;-6.15;65.17
74973;BME280;63529;56.320;43.990;2022-11-20T06:06:01;100243.19;;;-6.11;65.53
74973;BME280;63529;56.320;43.990;2022-11-20T06:08:27;100232.13;;;-6.13;64.94
74973;BME280;63529;56.320;43.990;2022-11-20T06:10:53;100235.09;;;-6.08;64.94
74973;BME280;63529;56.320;43.990;2022-11-20T06:13:19;100239.34;;;-6.07;65.22
74973;BME280;63529;56.320;43.990;2022-11-20T06:15:49;100235.66;;;-6.05;65.39
74973;BME280;63529;56.320;43.990;2022-11-20T06:18:15;100230.44;;;-6.05;65.00
74973;BME280;63529;56.320;43.990;2022-11-20T06:20:41;100237.13;;;-6.02;65.03
74973;BME280;63529;56.320;43.990;2022-11-20T06:23:07;100238.47;;;-5.98;65.45
74973;BME280;63529;56.320;43.990;2022-11-20T06:25:37;100235.56;;;-5.95;65.54
74973;BME280;63529;56.320;43.990;2022-11-20T06:28:03;100234.34;;;-5.91;64.98
74973;BME280;63529;56.320;43.990;2022-11-20T06:30:29;100224.56;;;-5.89;64.55
74973;BME280;63529;56.320;43.990;2022-11-20T06:32:55;100224.28;;;-5.86;64.43
74973;BME280;63529;56.320;43.990;2022-11-20T06:35:21;100232.31;;;-5.79;64.72
74973;BME280;63529;56.320;43.990;2022-11-20T06:37:47;100236.94;;;-5.73;64.80
74973;BME280;63529;56.320;43.990;2022-11-20T06:40:13;100233.22;;;-5.70;64.16
74973;BME280;63529;56.320;43.990;2022-11-20T06:42:39;100238.66;;;-5.64;64.08
74973;BME280;63529;56.320;43.990;2022-11-20T06:45:05;100242.59;;;-5.60;64.34
74973;BME280;63529;56.320;43.990;2022-11-20T06:47:31;100257.47;;;-5.52;64.04
74973;BME280;63529;56.320;43.990;2022-11-20T06:49:57;100244.16;;;-5.49;64.03
74973;BME280;63529;56.320;43.990;2022-11-20T06:52:23;100227.44;;;-5.47;63.27
74973;BME280;63529;56.320;43.990;2022-11-20T06:54:49;100232.06;;;-5.40;63.32
74973;BME280;63529;56.320;43.990;2022-11-20T06:57:15;100230.34;;;-5.32;63.70
74973;BME280;63529;56.320;43.990;2022-11-20T06:59:41;100236.41;;;-5.23;63.78
74973;BME280;63529;56.320;43.990;2022-11-20T07:02:10;100242.66;;;-5.16;63.49
74973;BME280;63529;56.320;43.990;2022-11-20T07:04:36;100257.81;;;-5.11;63.36
74973;BME280;63529;56.320;43.990;2022-11-20T07:07:02;100249.41;;;-5.05;62.86
74973;BME280;63529;56.320;43.990;2022-11-20T07:09:28;100243.09;;;-5.03;62.94
74973;BME280;63529;56.320;43.990;2022-11-20T07:11:54;100238.41;;;-4.99;63.12
74973;BME280;63529;56.320;43.990;2022-11-20T07:14:20;100237.97;;;-4.95;63.29
74973;BME280;63529;56.320;43.990;2022-11-20T07:16:46;100241.44;;;-4.86;63.71
74973;BME280;63529;56.320;43.990;2022-11-20T07:19:12;100238.38;;;-4.81;63.58
74973;BME280;63529;56.320;43.990;2022-11-20T07:21:38;100245.72;;;-4.77;63.33
74973;BME280;63529;56.320;43.990;2022-11-20T07:24:04;100231.59;;;-4.74;63.06
74973;BME280;63529;56.320;43.990;2022-11-20T07:26:30;100243.47;;;-4.72;62.76
74973;BME280;63529;56.320;43.990;2022-11-20T07:28:55;100249.50;;;-4.71;63.21
74973;BME280;63529;56.320;43.990;2022-11-20T07:31:21;100252.09;;;-4.71;62.71
74973;BME280;63529;56.320;43.990;2022-11-20T07:33:47;100252.25;;;-4.73;62.76
74973;BME280;63529;56.320;43.990;2022-11-20T07:36:13;100259.91;;;-4.71;63.14
74973;BME280;63529;56.320;43.990;2022-11-20T07:38:39;100259.09;;;-4.72;63.06
74973;BME280;63529;56.320;43.990;2022-11-20T07:41:05;100275.53;;;-4.71;62.31
74973;BME280;63529;56.320;43.990;2022-11-20T07:43:31;100286.09;;;-4.73;62.23
74973;BME280;63529;56.320;43.990;2022-11-20T07:45:58;100280.91;;;-4.73;62.78
74973;BME280;63529;56.320;43.990;2022-11-20T07:48:24;100279.28;;;-4.74;63.21
74973;BME280;63529;56.320;43.990;2022-11-20T07:50:55;100274.44;;;-4.69;62.92
74973;BME280;63529;56.320;43.990;2022-11-20T07:53:22;100285.34;;;-4.65;63.19
74973;BME280;63529;56.320;43.990;2022-11-20T07:55:48;100281.94;;;-4.66;62.65
74973;BME280;63529;56.320;43.990;2022-11-20T07:58:14;100288.75;;;-4.65;62.41
74973;BME280;63529;56.320;43.990;2022-11-20T08:00:40;100293.97;;;-4.65;62.43
74973;BME280;63529;56.320;43.990;2022-11-20T08:03:07;100297.25;;;-4.62;62.67
74973;BME280;63529;56.320;43.990;2022-11-20T08:05:33;100286.69;;;-4.61;62.80
74973;BME280;63529;56.320;43.990;2022-11-20T08:07:59;100290.91;;;-4.60;62.48
74973;BME280;63529;56.320;43.990;2022-11-20T08:10:25;100286.56;;;-4.51;62.82
74973;BME280;63529;56.320;43.990;2022-11-20T08:12:52;100294.75;;;-4.46;62.89
74973;BME280;63529;56.320;43.990;2022-11-20T08:15:39;100289.59;;;-4.38;62.72
74973;BME280;63529;56.320;43.990;2022-11-20T08:18:10;100297.09;;;-4.35;62.43
74973;BME280;63529;56.320;43.990;2022-11-20T08:20:37;100295.47;;;-4.36;62.61
74973;BME280;63529;56.320;43.990;2022-11-20T08:23:05;100313.72;;;-4.36;62.55
74973;BME280;63529;56.320;43.990;2022-11-20T08:25:34;100299.03;;;-4.37;62.42
74973;BME280;63529;56.320;43.990;2022-11-20T08:28:02;100292.88;;;-4.36;62.50
74973;BME280;63529;56.320;43.990;2022-11-20T08:30:29;100298.75;;;-4.34;62.41
74973;BME280;63529;56.320;43.990;2022-11-20T08:33:04;100303.94;;;-4.34;62.36
74973;BME280;63529;56.320;43.990;2022-11-20T08:35:37;100319.41;;;-4.32;62.16
74973;BME280;63529;56.320;43.990;2022-11-20T08:38:05;100316.31;;;-4.36;61.81
74973;BME280;63529;56.320;43.990;2022-11-20T08:40:31;100320.50;;;-4.43;61.41
74973;BME280;63529;56.320;43.990;2022-11-20T08:42:57;100322.44;;;-4.45;61.91
74973;BME280;63529;56.320;43.990;2022-11-20T08:45:23;100325.50;;;-4.50;61.39
74973;BME280;63529;56.320;43.990;2022-11-20T08:47:49;100330.72;;;-4.50;61.75
74973;BME280;63529;56.320;43.990;2022-11-20T08:50:16;100325.00;;;-4.53;61.53
74973;BME280;63529;56.320;43.990;2022-11-20T08:52:43;100322.81;;;-4.58;61.14
74973;BME280;63529;56.320;43.990;2022-11-20T08:55:09;100323.97;;;-4.60;61.41
74973;BME280;63529;56.320;43.990;2022-11-20T08:57:37;100325.59;;;-4.59;62.10
74973;BME280;63529;56.320;43.990;2022-11-20T09:00:04;100322.53;;;-4.55;62.02
74973;BME280;63529;56.320;43.990;2022-11-20T09:02:31;100315.91;;;-4.49;62.18
74973;BME280;63529;56.320;43.990;2022-11-20T09:04:58;100310.38;;;-4.46;62.24
74973;BME280;63529;56.320;43.990;2022-11-20T09:07:24;100305.53;;;-4.41;62.11
74973;BME280;63529;56.320;43.990;2022-11-20T09:09:50;100309.44;;;-4.37;62.05
74973;BME280;63529;56.320;43.990;2022-11-20T09:12:16;100300.38;;;-4.33;62.00
74973;BME280;63529;56.320;43.990;2022-11-20T09:14:42;100296.13;;;-4.34;62.06
74973;BME280;63529;56.320;43.990;2022-11-20T09:17:10;100309.97;;;-4.33;61.69
74973;BME280;63529;56.320;43.990;2022-11-20T09:19:38;100307.53;;;-4.35;61.96
74973;BME280;63529;56.320;43.990;2022-11-20T09:22:04;100318.25;;;-4.38;61.85
74973;BME280;63529;56.320;43.990;2022-11-20T09:24:29;100310.59;;;-4.40;61.82
74973;BME280;63529;56.320;43.990;2022-11-20T09:26:55;100305.53;;;-4.41;61.68
74973;BME280;63529;56.320;43.990;2022-11-20T09:29:21;100310.91;;;-4.43;62.23
74973;BME280;63529;56.320;43.990;2022-11-20T09:31:47;100321.16;;;-4.41;62.10
74973;BME280;63529;56.320;43.990;2022-11-20T09:34:13;100312.53;;;-4.42;62.34
74973;BME280;63529;56.320;43.990;2022-11-20T09:36:39;100314.66;;;-4.37;62.39
74973;BME280;63529;56.320;43.990;2022-11-20T09:39:05;100316.44;;;-4.38;61.92
74973;BME280;63529;56.320;43.990;2022-11-20T09:47:31;100293.53;;;-4.34;62.32
74973;BME280;63529;56.320;43.990;2022-11-20T09:53:29;100288.31;;;-4.34;62.01
74973;BME280;63529;56.320;43.990;2022-11-20T09:55:57;100295.16;;;-4.33;62.16
74973;BME280;63529;56.320;43.990;2022-11-20T10:04:18;100307.47;;;-4.43;61.82
74973;BME280;63529;56.320;43.990;2022-11-20T10:07:08;100297.34;;;-4.46;62.01
74973;BME280;63529;56.320;43.990;2022-11-20T10:09:40;100295.56;;;-4.46;62.00
74973;BME280;63529;56.320;43.990;2022-11-20T10:26:22;100300.78;;;-4.46;61.99
74973;BME280;63529;56.320;43.990;2022-11-20T10:29:13;100310.69;;;-4.49;62.10
74973;BME280;63529;56.320;43.990;2022-11-20T10:31:42;100306.59;;;-4.52;62.06
74973;BME280;63529;56.320;43.990;2022-11-20T10:47:55;100305.41;;;-4.57;62.60
74973;BME280;63529;56.320;43.990;2022-11-20T10:50:22;100302.31;;;-4.61;62.56
74973;BME280;63529;56.320;43.990;2022-11-20T10:56:02;100299.78;;;-4.71;62.82
74973;BME280;63529;56.320;43.990;2022-11-20T11:01:20;100300.88;;;-4.81;63.03
74973;BME280;63529;56.320;43.990;2022-11-20T11:03:51;100304.72;;;-4.85;63.18
74973;BME280;63529;56.320;43.990;2022-11-20T11:08:51;100313.78;;;-4.89;63.25
74973;BME280;63529;56.320;43.990;2022-11-20T11:11:33;100308.91;;;-4.93;63.16
74973;BME280;63529;56.320;43.990;2022-11-20T11:14:13;100305.75;;;-4.96;63.11
74973;BME280;63529;56.320;43.990;2022-11-20T11:16:51;100295.34;;;-4.96;63.22
74973;BME280;63529;56.320;43.990;2022-11-20T11:19:17;100291.94;;;-4.97;62.96
74973;BME280;63529;56.320;43.990;2022-11-20T11:21:49;100291.13;;;-4.97;63.25
74973;BME280;63529;56.320;43.990;2022-11-20T11:24:24;100289.03;;;-4.94;63.44
74973;BME280;63529;56.320;43.990;2022-11-20T11:27:03;100279.00;;;-4.88;63.60
74973;BME280;63529;56.320;43.990;2022-11-20T11:29:33;100281.00;;;-4.82;63.55
74973;BME280;63529;56.320;43.990;2022-11-20T11:32:08;100285.09;;;-4.80;63.40
74973;BME280;63529;56.320;43.990;2022-11-20T11:34:34;100276.00;;;-4.76;63.51
74973;BME280;63529;56.320;43.990;2022-11-20T11:37:01;100273.25;;;-4.74;63.59
74973;BME280;63529;56.320;43.990;2022-11-20T11:39:30;100281.22;;;-4.76;63.35
74973;BME280;63529;56.320;43.990;2022-11-20T11:41:58;100297.50;;;-4.74;63.44
74973;BME280;63529;56.320;43.990;2022-11-20T11:44:31;100299.44;;;-4.76;63.11
74973;BME280;63529;56.320;43.990;2022-11-20T11:47:24;100310.16;;;-4.79;62.97
74973;BME280;63529;56.320;43.990;2022-11-20T11:50:13;100296.47;;;-4.81;62.80
74973;BME280;63529;56.320;43.990;2022-11-20T11:53:07;100312.91;;;-4.80;63.04
74973;BME280;63529;56.320;43.990;2022-11-20T11:55:39;100311.28;;;-4.81;63.01
74973;BME280;63529;56.320;43.990;2022-11-20T12:07:07;100312.47;;;-4.94;63.74
74973;BME280;63529;56.320;43.990;2022-11-20T12:09:42;100311.66;;;-4.94;63.61
74973;BME280;63529;56.320;43.990;2022-11-20T12:12:15;100316.88;;;-4.94;64.03
74973;BME280;63529;56.320;43.990;2022-11-20T12:14:46;100331.34;;;-4.92;64.07
74973;BME280;63529;56.320;43.990;2022-11-20T12:17:14;100337.53;;;-4.93;64.31
74973;BME280;63529;56.320;43.990;2022-11-20T12:19:40;100337.38;;;-4.91;64.22
74973;BME280;63529;56.320;43.990;2022-11-20T12:22:11;100328.59;;;-4.90;64.29
74973;BME280;63529;56.320;43.990;2022-11-20T12:27:43;100330.25;;;-4.89;64.21
74973;BME280;63529;56.320;43.990;2022-11-20T12:30:17;100346.97;;;-4.92;64.02
74973;BME280;63529;56.320;43.990;2022-11-20T12:36:35;100348.53;;;-4.99;64.17
74973;BME280;63529;56.320;43.990;2022-11-20T12:50:39;100347.66;;;-5.07;64.68
74973;BME280;63529;56.320;43.990;2022-11-20T12:56:32;100343.69;;;-5.11;64.42
74973;BME280;63529;56.320;43.990;2022-11-20T13:07:07;100355.97;;;-5.04;65.36
74973;BME280;63529;56.320;43.990;2022-11-20T13:09:38;100357.47;;;-5.01;65.40
74973;BME280;63529;56.320;43.990;2022-11-20T13:12:12;100360.41;;;-4.96;65.59
74973;BME280;63529;56.320;43.990;2022-11-20T13:17:41;100370.25;;;-4.90;65.42
74973;BME280;63529;56.320;43.990;2022-11-20T13:20:16;100364.91;;;-4.88;65.56
74973;BME280;63529;56.320;43.990;2022-11-20T13:22:51;100368.31;;;-4.88;65.64
74973;BME280;63529;56.320;43.990;2022-11-20T13:25:35;100366.38;;;-4.86;65.61
74973;BME280;63529;56.320;43.990;2022-11-20T13:28:27;100367.88;;;-4.83;65.59
74973;BME280;63529;56.320;43.990;2022-11-20T13:30:56;100364.44;;;-4.84;65.71
74973;BME280;63529;56.320;43.990;2022-11-20T13:33:33;100366.06;;;-4.83;65.49
74973;BME280;63529;56.320;43.990;2022-11-20T13:36:06;100371.28;;;-4.83;65.76
74973;BME280;63529;56.320;43.990;2022-11-20T13:38:47;100369.38;;;-4.81;65.74
74973;BME280;63529;56.320;43.990;2022-11-20T13:41:31;100364.16;;;-4.81;65.99
74973;BME280;63529;56.320;43.990;2022-11-20T13:46:40;100380.44;;;-4.79;65.76
74973;BME280;63529;56.320;43.990;2022-11-20T14:00:22;100391.00;;;-4.80;65.78
74973;BME280;63529;56.320;43.990;2022-11-20T14:03:09;100396.88;;;-4.78;65.86
74973;BME280;63529;56.320;43.990;2022-11-20T14:05:49;100389.06;;;-4.78;65.70
74973;BME280;63529;56.320;43.990;2022-11-20T14:08:41;100384.84;;;-4.79;65.67
74973;BME280;63529;56.320;43.990;2022-11-20T14:11:18;100381.41;;;-4.80;65.75
74973;BME280;63529;56.320;43.990;2022-11-20T14:14:03;100372.13;;;-4.82;65.95
74973;BME280;63529;56.320;43.990;2022-11-20T14:16:33;100371.44;;;-4.84;65.64
74973;BME280;63529;56.320;43.990;2022-11-20T14:21:49;100368.31;;;-4.88;65.52
74973;BME280;63529;56.320;43.990;2022-11-20T14:24:23;100373.38;;;-4.86;65.67
74973;BME280;63529;56.320;43.990;2022-11-20T14:26:50;100381.34;;;-4.88;65.72
74973;BME280;63529;56.320;43.990;2022-11-20T14:29:28;100389.81;;;-4.86;66.05
74973;BME280;63529;56.320;43.990;2022-11-20T14:31:56;100389.81;;;-4.86;65.98
74973;BME280;63529;56.320;43.990;2022-11-20T14:34:28;100395.03;;;-4.86;66.02
74973;BME280;63529;56.320;43.990;2022-11-20T14:37:04;100393.25;;;-4.85;66.17
74973;BME280;63529;56.320;43.990;2022-11-20T14:39:46;100382.97;;;-4.87;65.81
74973;BME280;63529;56.320;43.990;2022-11-20T14:42:19;100387.22;;;-4.86;65.81